createdAt,value
2023-09-10T00:00:06.290Z,8.40
2023-09-10T00:00:26.696Z,9.10
2023-09-10T00:00:47.669Z,10.20
2023-09-10T00:01:08.635Z,9.70
2023-09-10T00:01:29.763Z,9.80
2023-09-10T00:01:50.372Z,11.00
2023-09-10T00:02:10.842Z,9.40
2023-09-10T00:02:31.796Z,9.40
2023-09-10T00:02:52.410Z,8.70
2023-09-10T00:03:12.937Z,9.50
2023-09-10T00:03:33.507Z,10.40
2023-09-10T00:03:53.922Z,8.80
2023-09-10T00:04:14.847Z,10.90
2023-09-10T00:04:35.919Z,8.80
2023-09-10T00:04:56.446Z,9.00
2023-09-10T00:05:16.859Z,9.40
2023-09-10T00:05:37.836Z,10.00
2023-09-10T00:05:58.776Z,9.70
2023-09-10T00:06:19.702Z,9.20
2023-09-10T00:06:40.731Z,9.90
2023-09-10T00:07:01.170Z,9.00
2023-09-10T00:07:22.108Z,8.20
2023-09-10T00:07:43.189Z,9.10
2023-09-10T00:08:03.664Z,11.70
2023-09-10T00:08:24.368Z,9.70
2023-09-10T00:08:44.898Z,9.90
2023-09-10T00:09:05.851Z,9.30
2023-09-10T00:09:26.769Z,8.90
2023-09-10T00:09:47.744Z,10.50
2023-09-10T00:10:08.972Z,9.00
2023-09-10T00:10:29.954Z,9.60
2023-09-10T00:10:50.073Z,10.90
2023-09-10T00:11:10.559Z,9.20
2023-09-10T00:11:31.073Z,10.70
2023-09-10T00:11:51.513Z,13.30
2023-09-10T00:12:12.572Z,10.70
2023-09-10T00:12:33.516Z,10.80
2023-09-10T00:12:54.052Z,10.30
2023-09-10T00:13:14.499Z,9.40
2023-09-10T00:13:35.448Z,8.80
2023-09-10T00:13:56.423Z,10.10
2023-09-10T00:14:16.859Z,11.80
2023-09-10T00:14:37.804Z,9.80
2023-09-10T00:14:58.775Z,11.30
2023-09-10T00:15:19.850Z,9.20
2023-09-10T00:15:40.403Z,13.10
2023-09-10T00:16:01.255Z,12.00
2023-09-10T00:16:22.265Z,13.00
2023-09-10T00:16:42.883Z,12.60
2023-09-10T00:17:03.413Z,11.00
2023-09-10T00:17:24.223Z,10.80
2023-09-10T00:17:44.784Z,9.20
2023-09-10T00:18:05.222Z,9.00
2023-09-10T00:18:26.142Z,7.90
2023-09-10T00:18:47.083Z,8.80
2023-09-10T00:19:08.032Z,9.20
2023-09-10T00:19:28.989Z,11.60
2023-09-10T00:19:49.999Z,11.40
2023-09-10T00:20:10.994Z,10.70
2023-09-10T00:20:31.481Z,9.20
2023-09-10T00:20:52.036Z,9.90
2023-09-10T00:21:12.492Z,10.80
2023-09-10T00:21:33.517Z,11.80
2023-09-10T00:21:54.244Z,10.20
2023-09-10T00:22:14.819Z,9.70
2023-09-10T00:22:35.315Z,11.00
2023-09-10T00:22:56.480Z,9.70
2023-09-10T00:23:16.877Z,11.30
2023-09-10T00:23:37.816Z,13.60
2023-09-10T00:23:58.759Z,11.60
2023-09-10T00:24:19.699Z,10.40
2023-09-10T00:24:40.635Z,11.30
2023-09-10T00:25:01.676Z,11.00
2023-09-10T00:25:22.186Z,10.70
2023-09-10T00:25:42.781Z,11.00
2023-09-10T00:26:03.391Z,10.20
2023-09-10T00:26:23.873Z,10.40
2023-09-10T00:26:44.411Z,11.10
2023-09-10T00:27:05.041Z,10.80
2023-09-10T00:27:25.464Z,11.50
2023-09-10T00:27:46.394Z,10.30
2023-09-10T00:28:07.346Z,9.30
2023-09-10T00:28:28.301Z,10.00
2023-09-10T00:28:49.281Z,11.30
2023-09-10T00:29:10.243Z,12.30
2023-09-10T00:29:31.144Z,10.70
2023-09-10T00:29:52.116Z,9.20
2023-09-10T00:30:13.168Z,9.10
2023-09-10T00:30:33.689Z,11.80
2023-09-10T00:30:54.261Z,11.70
2023-09-10T00:31:14.781Z,12.10
2023-09-10T00:31:35.433Z,9.00
2023-09-10T00:31:55.928Z,10.10
2023-09-10T00:32:16.830Z,10.70
2023-09-10T00:32:37.854Z,11.10
2023-09-10T00:32:58.359Z,10.00
2023-09-10T00:33:19.343Z,9.20
2023-09-10T00:33:39.773Z,12.20
2023-09-10T00:34:00.818Z,9.50
2023-09-10T00:34:21.259Z,10.20
2023-09-10T00:34:42.270Z,10.40
2023-09-10T00:35:03.301Z,10.80
2023-09-10T00:35:23.819Z,9.80
2023-09-10T00:35:44.340Z,10.70
2023-09-10T00:36:04.857Z,8.80
2023-09-10T00:36:25.362Z,8.30
2023-09-10T00:36:45.791Z,9.30
2023-09-10T00:37:06.768Z,10.50
2023-09-10T00:37:27.717Z,9.70
2023-09-10T00:37:48.710Z,8.80
2023-09-10T00:38:30.657Z,8.90
2023-09-10T00:38:51.177Z,8.90
2023-09-10T00:39:11.692Z,9.20
2023-09-10T00:39:32.198Z,9.70
2023-09-10T00:39:52.937Z,10.40
2023-09-10T00:40:13.470Z,11.40
2023-09-10T00:40:34.057Z,9.60
2023-09-10T00:40:54.809Z,9.40
2023-09-10T00:41:15.248Z,9.80
2023-09-10T00:41:36.174Z,13.60
2023-09-10T00:41:57.122Z,12.40
2023-09-10T00:42:18.097Z,9.30
2023-09-10T00:42:39.052Z,10.40
2023-09-10T00:42:59.992Z,11.80
2023-09-10T00:43:20.999Z,10.00
2023-09-10T00:43:41.492Z,10.50
2023-09-10T00:44:02.503Z,10.20
2023-09-10T00:44:23.018Z,10.90
2023-09-10T00:44:43.971Z,11.20
2023-09-10T00:45:04.494Z,9.30
2023-09-10T00:45:25.312Z,9.10
2023-09-10T00:45:45.808Z,10.00
2023-09-10T00:46:06.718Z,8.90
2023-09-10T00:46:27.680Z,8.70
2023-09-10T00:46:48.687Z,11.40
2023-09-10T00:47:09.621Z,12.00
2023-09-10T00:47:30.554Z,9.70
2023-09-10T00:47:51.536Z,9.10
2023-09-10T00:48:11.998Z,10.70
2023-09-10T00:48:32.564Z,11.70
2023-09-10T00:48:53.848Z,10.80
2023-09-10T00:49:14.381Z,9.80
2023-09-10T00:49:34.978Z,10.80
2023-09-10T00:49:55.692Z,9.40
2023-09-10T00:50:16.099Z,10.50
2023-09-10T00:50:37.158Z,10.40
2023-09-10T00:50:57.605Z,8.70
2023-09-10T00:51:18.614Z,10.70
2023-09-10T00:51:39.505Z,11.30
2023-09-10T00:52:00.610Z,9.80
2023-09-10T00:52:21.050Z,8.70
2023-09-10T00:52:41.993Z,9.60
2023-09-10T00:53:03.025Z,9.20
2023-09-10T00:53:23.505Z,9.80
2023-09-10T00:53:44.024Z,10.80
2023-09-10T00:54:04.536Z,8.80
2023-09-10T00:54:25.097Z,8.90
2023-09-10T00:54:45.555Z,10.30
2023-09-10T00:55:06.485Z,11.50
2023-09-10T00:55:27.412Z,8.40
2023-09-10T00:55:48.385Z,7.90
2023-09-10T00:56:09.400Z,10.50
2023-09-10T00:56:30.279Z,9.00
2023-09-10T00:56:51.300Z,8.70
2023-09-10T00:57:11.857Z,8.70
2023-09-10T00:57:32.585Z,10.90
2023-09-10T00:57:53.156Z,10.70
2023-09-10T00:58:13.689Z,10.50
2023-09-10T00:58:34.478Z,12.30
2023-09-10T00:58:55.035Z,9.30
2023-09-10T00:59:15.555Z,8.60
2023-09-10T00:59:35.995Z,9.10
2023-09-10T00:59:56.934Z,10.30
2023-09-10T01:00:17.882Z,9.90
2023-09-10T01:00:38.856Z,9.00
2023-09-10T01:00:59.972Z,9.40
2023-09-10T01:01:20.399Z,8.90
2023-09-10T01:01:41.383Z,11.10
2023-09-10T01:02:02.446Z,8.90
2023-09-10T01:02:22.979Z,8.50
2023-09-10T01:02:43.537Z,10.50
2023-09-10T01:03:04.110Z,9.90
2023-09-10T01:03:24.697Z,9.20
2023-09-10T01:03:45.236Z,9.30
2023-09-10T01:04:05.779Z,9.50
2023-09-10T01:04:26.153Z,9.30
2023-09-10T01:04:47.113Z,11.60
2023-09-10T01:05:08.056Z,10.50
2023-09-10T01:05:29.008Z,10.00
2023-09-10T01:05:49.992Z,8.50
2023-09-10T01:06:10.920Z,10.20
2023-09-10T01:06:31.853Z,9.40
2023-09-10T01:06:52.875Z,10.10
2023-09-10T01:07:13.624Z,10.70
2023-09-10T01:07:34.183Z,8.80
2023-09-10T01:07:54.741Z,8.20
2023-09-10T01:08:15.600Z,8.20
2023-09-10T01:08:36.100Z,9.00
2023-09-10T01:08:56.558Z,9.30
2023-09-10T01:09:17.469Z,9.80
2023-09-10T01:09:38.399Z,10.20
2023-09-10T01:09:59.574Z,10.60
2023-09-10T01:10:19.995Z,9.40
2023-09-10T01:10:40.956Z,8.30
2023-09-10T01:11:02.123Z,8.50
2023-09-10T01:11:22.878Z,11.80
2023-09-10T01:11:43.351Z,11.10
2023-09-10T01:12:03.929Z,10.60
2023-09-10T01:12:24.652Z,10.70
2023-09-10T01:12:45.196Z,10.20
2023-09-10T01:13:05.737Z,10.10
2023-09-10T01:13:26.438Z,11.10
2023-09-10T01:13:46.886Z,9.30
2023-09-10T01:14:07.846Z,9.70
2023-09-10T01:14:28.796Z,12.00
2023-09-10T01:14:49.728Z,9.20
2023-09-10T01:15:10.695Z,10.50
2023-09-10T01:15:32.162Z,9.10
2023-09-10T01:15:52.705Z,9.70
2023-09-10T01:16:13.233Z,11.90
2023-09-10T01:16:34.141Z,9.50
2023-09-10T01:16:54.467Z,9.40
2023-09-10T01:17:15.058Z,9.00
2023-09-10T01:17:35.826Z,8.80
2023-09-10T01:17:56.680Z,10.20
2023-09-10T01:18:17.220Z,10.30
2023-09-10T01:18:38.446Z,9.60
2023-09-10T01:18:58.816Z,8.50
2023-09-10T01:19:19.719Z,7.80
2023-09-10T01:19:40.685Z,9.10
2023-09-10T01:20:01.670Z,8.40
2023-09-10T01:20:22.740Z,9.70
2023-09-10T01:20:43.278Z,10.80
2023-09-10T01:21:03.816Z,11.40
2023-09-10T01:21:24.347Z,11.20
2023-09-10T01:21:44.861Z,12.20
2023-09-10T01:22:05.311Z,12.50
2023-09-10T01:22:26.374Z,8.20
2023-09-10T01:22:47.016Z,8.30
2023-09-10T01:23:07.545Z,9.50
2023-09-10T01:23:28.423Z,10.50
2023-09-10T01:23:49.363Z,9.50
2023-09-10T01:24:10.327Z,13.20
2023-09-10T01:24:31.267Z,11.40
2023-09-10T01:24:52.345Z,11.20
2023-09-10T01:25:13.089Z,9.70
2023-09-10T01:25:33.565Z,8.60
2023-09-10T01:25:54.591Z,7.80
2023-09-10T01:26:15.088Z,9.20
2023-09-10T01:26:35.612Z,10.20
2023-09-10T01:26:56.133Z,10.50
2023-09-10T01:27:16.668Z,12.60
2023-09-10T01:27:37.204Z,11.50
2023-09-10T01:27:57.621Z,10.80
2023-09-10T01:28:18.568Z,9.60
2023-09-10T01:28:39.758Z,9.40
2023-09-10T01:29:00.330Z,9.20
2023-09-10T01:29:21.304Z,7.90
2023-09-10T01:29:41.736Z,8.60
2023-09-10T01:30:02.766Z,10.90
2023-09-10T01:30:23.161Z,10.60
2023-09-10T01:30:44.198Z,8.60
2023-09-10T01:31:04.798Z,7.70
2023-09-10T01:31:25.292Z,8.10
2023-09-10T01:31:45.738Z,12.70
2023-09-10T01:32:06.914Z,9.90
2023-09-10T01:32:27.399Z,9.20
2023-09-10T01:32:47.850Z,10.00
2023-09-10T01:33:08.796Z,10.30
2023-09-10T01:33:29.764Z,10.40
2023-09-10T01:33:50.692Z,7.90
2023-09-10T01:34:11.651Z,9.00
2023-09-10T01:34:33.153Z,11.30
2023-09-10T01:34:53.847Z,10.30
2023-09-10T01:35:14.312Z,8.50
2023-09-10T01:35:35.274Z,10.00
2023-09-10T01:35:55.803Z,10.60
2023-09-10T01:36:16.314Z,9.80
2023-09-10T01:36:36.839Z,9.30
2023-09-10T01:36:57.372Z,10.70
2023-09-10T01:37:17.929Z,11.80
2023-09-10T01:37:38.381Z,10.20
2023-09-10T01:37:59.410Z,9.70
2023-09-10T01:38:19.843Z,9.70
2023-09-10T01:38:41.249Z,11.20
2023-09-10T01:39:01.391Z,10.80
2023-09-10T01:39:22.342Z,7.90
2023-09-10T01:39:43.392Z,9.20
2023-09-10T01:40:04.123Z,9.30
2023-09-10T01:40:24.650Z,8.60
2023-09-10T01:40:45.177Z,10.80
2023-09-10T01:41:05.919Z,12.90
2023-09-10T01:41:26.327Z,11.40
2023-09-10T01:41:47.346Z,9.00
2023-09-10T01:42:07.880Z,9.20
2023-09-10T01:42:28.317Z,10.30
2023-09-10T01:42:49.245Z,9.60
2023-09-10T01:43:10.210Z,10.20
2023-09-10T01:43:31.203Z,9.80
2023-09-10T01:43:52.111Z,10.00
2023-09-10T01:44:13.103Z,8.00
2023-09-10T01:44:34.026Z,9.90
2023-09-10T01:44:55.078Z,9.90
2023-09-10T01:45:15.638Z,8.70
2023-09-10T01:45:36.180Z,10.20
2023-09-10T01:45:56.729Z,10.90
2023-09-10T01:46:17.321Z,9.90
2023-09-10T01:46:37.954Z,8.90
2023-09-10T01:46:58.501Z,10.80
2023-09-10T01:47:18.998Z,10.50
2023-09-10T01:47:39.979Z,9.80
2023-09-10T01:48:00.934Z,11.50
2023-09-10T01:48:21.841Z,10.20
2023-09-10T01:48:42.822Z,9.80
2023-09-10T01:49:03.768Z,9.30
2023-09-10T01:49:24.842Z,11.00
2023-09-10T01:49:45.377Z,10.80
2023-09-10T01:50:06.178Z,9.80
2023-09-10T01:50:26.654Z,9.80
2023-09-10T01:50:47.178Z,11.20
2023-09-10T01:51:07.909Z,13.90
2023-09-10T01:51:28.434Z,13.40
2023-09-10T01:51:48.915Z,12.90
2023-09-10T01:52:09.856Z,11.50
2023-09-10T01:52:30.835Z,11.00
2023-09-10T01:52:51.828Z,11.60
2023-09-10T01:53:12.779Z,11.30
2023-09-10T01:53:33.790Z,12.20
2023-09-10T01:53:54.311Z,13.30
2023-09-10T01:54:14.850Z,13.30
2023-09-10T01:54:35.307Z,11.80
2023-09-10T01:54:56.331Z,10.00
2023-09-10T01:55:17.083Z,11.80
2023-09-10T01:55:37.618Z,11.50
2023-09-10T01:55:58.229Z,11.80
2023-09-10T01:56:19.106Z,10.60
2023-09-10T01:56:39.529Z,10.30
2023-09-10T01:57:00.582Z,10.90
2023-09-10T01:57:21.047Z,11.60
2023-09-10T01:57:42.032Z,12.50
2023-09-10T01:58:02.967Z,11.80
2023-09-10T01:58:24.259Z,10.50
2023-09-10T01:58:44.869Z,12.00
2023-09-10T01:59:05.287Z,12.20
2023-09-10T01:59:26.217Z,11.80
2023-09-10T01:59:47.484Z,11.40
2023-09-10T02:00:07.997Z,11.20
2023-09-10T02:00:28.529Z,9.80
2023-09-10T02:00:49.126Z,9.50
2023-09-10T02:01:09.579Z,11.40
2023-09-10T02:01:30.586Z,10.80
2023-09-10T02:01:51.608Z,12.40
2023-09-10T02:02:12.103Z,11.80
2023-09-10T02:02:32.554Z,11.70
2023-09-10T02:02:53.641Z,10.90
2023-09-10T02:03:14.531Z,11.70
2023-09-10T02:03:35.029Z,11.20
2023-09-10T02:03:55.636Z,10.50
2023-09-10T02:04:16.535Z,9.30
2023-09-10T02:04:37.181Z,10.40
2023-09-10T02:04:57.711Z,10.90
2023-09-10T02:05:18.433Z,11.30
2023-09-10T02:05:38.962Z,12.20
2023-09-10T02:05:59.395Z,11.30
2023-09-10T02:06:20.316Z,12.40
2023-09-10T02:06:41.257Z,12.20
2023-09-10T02:07:02.205Z,11.20
2023-09-10T02:07:23.139Z,11.30
2023-09-10T02:07:44.083Z,10.60
2023-09-10T02:08:05.130Z,10.60
2023-09-10T02:08:25.571Z,11.50
2023-09-10T02:08:46.806Z,10.50
2023-09-10T02:09:07.324Z,9.20
2023-09-10T02:09:27.845Z,11.60
2023-09-10T02:09:48.600Z,13.70
2023-09-10T02:10:09.120Z,12.10
2023-09-10T02:10:29.530Z,10.10
2023-09-10T02:10:50.505Z,10.00
2023-09-10T02:11:11.457Z,10.30
2023-09-10T02:11:32.406Z,12.00
2023-09-10T02:11:53.351Z,9.60
2023-09-10T02:12:14.284Z,10.50
2023-09-10T02:12:35.358Z,11.60
2023-09-10T02:12:55.939Z,11.20
2023-09-10T02:13:16.482Z,11.30
2023-09-10T02:13:37.059Z,9.90
2023-09-10T02:13:57.627Z,10.00
2023-09-10T02:14:18.442Z,12.30
2023-09-10T02:14:38.981Z,12.30
2023-09-10T02:14:59.514Z,11.60
2023-09-10T02:15:19.921Z,12.70
2023-09-10T02:15:40.836Z,11.80
2023-09-10T02:16:01.999Z,10.10
2023-09-10T02:16:22.576Z,10.50
2023-09-10T02:16:43.111Z,12.60
2023-09-10T02:17:03.605Z,11.30
2023-09-10T02:17:24.071Z,10.40
2023-09-10T02:17:47.182Z,12.00
2023-09-10T02:18:05.892Z,10.90
2023-09-10T02:18:26.307Z,13.20
2023-09-10T02:18:47.253Z,11.00
2023-09-10T02:19:08.782Z,12.00
2023-09-10T02:19:28.793Z,12.90
2023-09-10T02:19:49.546Z,10.80
2023-09-10T02:20:10.753Z,11.50
2023-09-10T02:20:30.786Z,9.40
2023-09-10T02:20:51.741Z,9.20
2023-09-10T02:21:12.266Z,10.70
2023-09-10T02:21:33.208Z,12.00
2023-09-10T02:21:54.148Z,12.10
2023-09-10T02:22:15.471Z,10.70
2023-09-10T02:22:35.949Z,11.40
2023-09-10T02:22:57.019Z,11.80
2023-09-10T02:23:17.599Z,11.50
2023-09-10T02:23:38.104Z,12.40
2023-09-10T02:23:58.856Z,16.10
2023-09-10T02:24:19.342Z,13.80
2023-09-10T02:24:39.894Z,11.30
2023-09-10T02:25:00.324Z,11.10
2023-09-10T02:25:21.287Z,10.80
2023-09-10T02:25:42.230Z,10.00
2023-09-10T02:26:03.224Z,11.40
2023-09-10T02:26:23.720Z,12.10
2023-09-10T02:26:44.650Z,11.30
2023-09-10T02:27:05.874Z,10.40
2023-09-10T02:27:26.415Z,9.60
2023-09-10T02:27:47.397Z,11.40
2023-09-10T02:28:07.952Z,12.20
2023-09-10T02:28:28.401Z,11.50
2023-09-10T02:28:49.454Z,12.20
2023-09-10T02:29:10.185Z,12.80
2023-09-10T02:29:30.752Z,11.10
2023-09-10T02:29:51.178Z,11.40
2023-09-10T02:30:12.118Z,13.80
2023-09-10T02:30:33.069Z,11.90
2023-09-10T02:30:54.033Z,12.20
2023-09-10T02:31:15.025Z,10.10
2023-09-10T02:31:36.285Z,11.40
2023-09-10T02:31:56.878Z,12.10
2023-09-10T02:32:17.437Z,11.40
2023-09-10T02:32:38.225Z,11.30
2023-09-10T02:32:58.743Z,11.70
2023-09-10T02:33:19.356Z,11.80
2023-09-10T02:33:40.049Z,12.90
2023-09-10T02:34:00.579Z,14.30
2023-09-10T02:34:21.021Z,12.40
2023-09-10T02:34:41.986Z,12.30
2023-09-10T02:35:02.942Z,10.70
2023-09-10T02:35:23.848Z,11.30
2023-09-10T02:35:44.802Z,13.50
2023-09-10T02:36:05.732Z,11.20
2023-09-10T02:36:26.746Z,11.30
2023-09-10T02:36:47.272Z,11.20
2023-09-10T02:37:08.003Z,11.90
2023-09-10T02:37:28.431Z,11.90
2023-09-10T02:37:49.467Z,10.90
2023-09-10T02:38:10.014Z,11.40
2023-09-10T02:38:30.566Z,11.30
2023-09-10T02:38:51.047Z,11.50
2023-09-10T02:39:12.000Z,10.90
2023-09-10T02:39:32.970Z,10.20
2023-09-10T02:39:53.912Z,12.70
2023-09-10T02:40:14.889Z,12.40
2023-09-10T02:40:35.848Z,11.10
2023-09-10T02:40:56.915Z,11.20
2023-09-10T02:41:17.461Z,11.10
2023-09-10T02:41:37.851Z,9.80
2023-09-10T02:41:58.879Z,10.90
2023-09-10T02:42:19.405Z,12.70
2023-09-10T02:42:40.392Z,13.40
2023-09-10T02:43:01.129Z,11.60
2023-09-10T02:43:21.549Z,9.90
2023-09-10T02:43:42.501Z,10.70
2023-09-10T02:44:03.495Z,10.40
2023-09-10T02:44:24.435Z,10.00
2023-09-10T02:44:45.352Z,11.00
2023-09-10T02:45:06.297Z,11.10
2023-09-10T02:45:27.387Z,10.20
2023-09-10T02:45:47.984Z,9.60
2023-09-10T02:46:08.467Z,9.90
2023-09-10T02:46:28.972Z,10.80
2023-09-10T02:46:49.553Z,12.30
2023-09-10T02:47:10.122Z,11.30
2023-09-10T02:47:30.690Z,11.70
2023-09-10T02:47:51.251Z,11.10
2023-09-10T02:48:11.600Z,11.40
2023-09-10T02:48:32.540Z,10.50
2023-09-10T02:48:53.504Z,10.40
2023-09-10T02:49:14.441Z,11.10
2023-09-10T02:49:35.392Z,11.00
2023-09-10T02:49:56.339Z,12.60
2023-09-10T02:50:17.356Z,12.30
2023-09-10T02:50:38.104Z,11.20
2023-09-10T02:50:58.658Z,10.40
2023-09-10T02:51:19.189Z,10.80
2023-09-10T02:51:39.915Z,11.50
2023-09-10T02:52:00.427Z,11.30
2023-09-10T02:52:20.955Z,12.20
2023-09-10T02:52:41.773Z,12.10
2023-09-10T02:53:02.178Z,11.80
2023-09-10T02:53:23.039Z,13.20
2023-09-10T02:53:44.002Z,12.20
2023-09-10T02:54:04.955Z,12.40
2023-09-10T02:54:25.884Z,11.30
2023-09-10T02:54:46.805Z,11.90
2023-09-10T02:55:07.846Z,10.20
2023-09-10T02:55:28.354Z,9.90
2023-09-10T02:55:48.969Z,10.80
2023-09-10T02:56:09.509Z,11.90
2023-09-10T02:56:30.027Z,10.50
2023-09-10T02:56:50.549Z,11.00
2023-09-10T02:57:11.093Z,11.80
2023-09-10T02:57:31.619Z,12.60
2023-09-10T02:57:52.112Z,11.90
2023-09-10T02:58:13.047Z,13.00
2023-09-10T02:58:33.997Z,11.70
2023-09-10T02:58:55.008Z,10.30
2023-09-10T02:59:15.965Z,11.00
2023-09-10T02:59:36.934Z,11.90
2023-09-10T02:59:57.951Z,13.00
2023-09-10T03:00:18.669Z,12.40
2023-09-10T03:00:39.210Z,12.10
2023-09-10T03:00:59.805Z,11.70
2023-09-10T03:01:20.550Z,12.00
2023-09-10T03:01:41.198Z,11.50
2023-09-10T03:02:01.859Z,12.10
2023-09-10T03:02:22.683Z,12.80
2023-09-10T03:02:43.327Z,11.90
2023-09-10T03:03:04.034Z,13.10
2023-09-10T03:03:24.630Z,11.00
2023-09-10T03:03:45.599Z,11.00
2023-09-10T03:04:06.097Z,12.30
2023-09-10T03:04:27.013Z,10.70
2023-09-10T03:04:48.107Z,12.70
2023-09-10T03:05:08.670Z,12.00
2023-09-10T03:05:29.093Z,11.30
2023-09-10T03:05:50.312Z,12.00
2023-09-10T03:06:10.872Z,12.70
2023-09-10T03:06:31.433Z,14.30
2023-09-10T03:06:52.172Z,13.40
2023-09-10T03:07:12.672Z,9.80
2023-09-10T03:07:33.617Z,11.10
2023-09-10T03:07:54.596Z,11.30
2023-09-10T03:08:15.551Z,13.50
2023-09-10T03:08:36.503Z,14.10
2023-09-10T03:08:57.410Z,12.50
2023-09-10T03:09:18.449Z,11.20
2023-09-10T03:09:38.892Z,11.60
2023-09-10T03:09:59.923Z,12.80
2023-09-10T03:10:20.455Z,12.70
2023-09-10T03:10:40.975Z,10.80
2023-09-10T03:11:01.590Z,10.90
2023-09-10T03:11:22.100Z,13.20
2023-09-10T03:11:42.624Z,14.90
2023-09-10T03:12:03.049Z,13.40
2023-09-10T03:12:23.985Z,13.80
2023-09-10T03:12:44.944Z,11.00
2023-09-10T03:13:05.917Z,11.90
2023-09-10T03:13:26.843Z,13.20
2023-09-10T03:13:47.996Z,13.00
2023-09-10T03:14:08.539Z,12.10
2023-09-10T03:14:29.056Z,10.80
2023-09-10T03:14:49.608Z,11.20
2023-09-10T03:15:10.130Z,11.20
2023-09-10T03:15:30.756Z,12.00
2023-09-10T03:15:51.438Z,13.30
2023-09-10T03:16:12.021Z,13.10
2023-09-10T03:16:32.699Z,11.40
2023-09-10T03:16:53.246Z,11.40
2023-09-10T03:17:13.712Z,14.70
2023-09-10T03:17:34.772Z,11.80
2023-09-10T03:17:55.170Z,11.10
2023-09-10T03:18:16.112Z,11.30
2023-09-10T03:18:37.252Z,11.20
2023-09-10T03:18:57.858Z,13.60
2023-09-10T03:19:18.895Z,11.50
2023-09-10T03:19:39.444Z,11.80
2023-09-10T03:20:00.002Z,12.20
2023-09-10T03:20:20.531Z,10.30
2023-09-10T03:20:41.076Z,10.80
2023-09-10T03:21:01.780Z,12.20
2023-09-10T03:21:22.291Z,12.20
2023-09-10T03:21:42.865Z,11.20
2023-09-10T03:22:03.555Z,10.40
2023-09-10T03:22:23.968Z,11.40
2023-09-10T03:22:45.019Z,11.50
2023-09-10T03:23:05.506Z,12.30
2023-09-10T03:23:25.979Z,13.20
2023-09-10T03:23:46.953Z,13.60
2023-09-10T03:24:07.929Z,10.60
2023-09-10T03:24:28.936Z,12.30
2023-09-10T03:24:49.386Z,12.30
2023-09-10T03:25:10.512Z,11.40
2023-09-10T03:25:31.034Z,13.80
2023-09-10T03:25:51.657Z,13.10
2023-09-10T03:26:12.193Z,12.30
2023-09-10T03:26:32.705Z,13.00
2023-09-10T03:26:53.215Z,13.90
2023-09-10T03:27:13.648Z,12.00
2023-09-10T03:27:34.572Z,10.70
2023-09-10T03:27:55.521Z,10.90
2023-09-10T03:28:16.497Z,12.70
2023-09-10T03:28:37.724Z,13.10
2023-09-10T03:28:58.346Z,13.50
2023-09-10T03:29:19.410Z,12.80
2023-09-10T03:29:39.890Z,11.10
2023-09-10T03:30:00.442Z,11.30
2023-09-10T03:30:20.938Z,13.30
2023-09-10T03:30:41.383Z,12.40
2023-09-10T03:31:02.418Z,11.00
2023-09-10T03:31:23.018Z,11.10
2023-09-10T03:31:43.763Z,11.30
2023-09-10T03:32:04.226Z,12.90
2023-09-10T03:32:25.273Z,12.40
2023-09-10T03:32:45.917Z,13.80
2023-09-10T03:33:06.840Z,13.60
2023-09-10T03:33:27.436Z,13.20
2023-09-10T03:33:47.960Z,11.40
2023-09-10T03:34:09.011Z,10.50
2023-09-10T03:34:29.546Z,14.40
2023-09-10T03:34:50.033Z,10.90
2023-09-10T03:35:10.953Z,11.20
2023-09-10T03:35:32.017Z,13.90
2023-09-10T03:35:52.557Z,11.20
2023-09-10T03:36:13.153Z,12.30
2023-09-10T03:36:33.652Z,11.90
2023-09-10T03:36:54.091Z,12.20
2023-09-10T03:37:15.017Z,13.50
2023-09-10T03:37:36.108Z,11.90
2023-09-10T03:37:56.625Z,11.70
2023-09-10T03:38:17.333Z,10.60
2023-09-10T03:38:38.094Z,11.60
2023-09-10T03:38:58.668Z,13.90
2023-09-10T03:39:19.693Z,12.50
2023-09-10T03:39:40.205Z,12.30
2023-09-10T03:40:00.641Z,14.10
2023-09-10T03:40:21.881Z,11.40
2023-09-10T03:40:42.409Z,10.20
2023-09-10T03:41:03.012Z,12.70
2023-09-10T03:41:23.677Z,11.60
2023-09-10T03:41:44.572Z,10.20
2023-09-10T03:42:05.011Z,10.30
2023-09-10T03:42:25.908Z,11.10
2023-09-10T03:42:46.852Z,12.90
2023-09-10T03:43:07.805Z,12.70
2023-09-10T03:43:28.749Z,11.70
2023-09-10T03:43:49.851Z,12.00
2023-09-10T03:44:10.406Z,11.60
2023-09-10T03:44:30.835Z,11.20
2023-09-10T03:44:51.917Z,10.00
2023-09-10T03:45:12.469Z,11.00
2023-09-10T03:45:32.989Z,13.00
2023-09-10T03:45:53.529Z,11.70
2023-09-10T03:46:14.079Z,14.20
2023-09-10T03:46:34.586Z,13.50
2023-09-10T03:46:55.111Z,12.70
2023-09-10T03:47:15.655Z,12.00
2023-09-10T03:47:36.109Z,10.40
2023-09-10T03:47:57.112Z,11.40
2023-09-10T03:48:17.596Z,10.80
2023-09-10T03:48:38.785Z,11.70
2023-09-10T03:48:59.389Z,14.10
2023-09-10T03:49:20.421Z,12.80
2023-09-10T03:49:40.976Z,11.90
2023-09-10T03:50:01.526Z,11.80
2023-09-10T03:50:21.998Z,12.70
2023-09-10T03:50:42.665Z,11.20
2023-09-10T03:51:03.130Z,12.90
2023-09-10T03:51:23.667Z,13.30
2023-09-10T03:51:44.222Z,12.90
2023-09-10T03:52:04.770Z,13.60
2023-09-10T03:52:25.193Z,13.80
2023-09-10T03:52:46.163Z,14.80
2023-09-10T03:53:07.164Z,11.30
2023-09-10T03:53:28.047Z,13.80
2023-09-10T03:53:49.000Z,14.70
2023-09-10T03:54:09.934Z,14.30
2023-09-10T03:54:30.866Z,13.90
2023-09-10T03:54:51.906Z,12.80
2023-09-10T03:55:12.494Z,12.90
2023-09-10T03:55:33.023Z,13.80
2023-09-10T03:55:53.644Z,14.00
2023-09-10T03:56:14.170Z,11.70
2023-09-10T03:56:34.681Z,14.90
2023-09-10T03:56:55.102Z,13.80
2023-09-10T03:57:16.038Z,13.70
2023-09-10T03:57:36.944Z,12.00
2023-09-10T03:57:57.883Z,12.80
2023-09-10T03:58:18.845Z,14.40
2023-09-10T03:58:40.028Z,11.60
2023-09-10T03:59:00.880Z,12.70
2023-09-10T03:59:21.423Z,11.80
2023-09-10T03:59:41.858Z,13.50
2023-09-10T04:00:02.889Z,11.90
2023-09-10T04:00:23.436Z,13.00
2023-09-10T04:00:43.871Z,12.40
2023-09-10T04:01:04.894Z,13.30
2023-09-10T04:01:25.299Z,12.60
2023-09-10T04:01:46.293Z,12.70
2023-09-10T04:02:07.340Z,12.10
2023-09-10T04:02:28.302Z,13.20
2023-09-10T04:02:49.230Z,11.60
2023-09-10T04:03:10.169Z,12.50
2023-09-10T04:03:31.218Z,13.20
2023-09-10T04:03:51.691Z,13.80
2023-09-10T04:04:12.631Z,13.00
2023-09-10T04:04:33.634Z,13.90
2023-09-10T04:04:54.242Z,12.40
2023-09-10T04:05:15.058Z,11.50
2023-09-10T04:05:36.028Z,12.10
2023-09-10T04:05:55.952Z,13.00
2023-09-10T04:06:16.899Z,12.50
2023-09-10T04:06:37.846Z,10.30
2023-09-10T04:06:58.808Z,11.90
2023-09-10T04:07:19.905Z,12.70
2023-09-10T04:07:40.311Z,13.40
2023-09-10T04:08:01.362Z,12.50
2023-09-10T04:08:21.815Z,12.20
2023-09-10T04:08:42.817Z,14.90
2023-09-10T04:09:03.345Z,13.10
2023-09-10T04:09:23.870Z,13.10
2023-09-10T04:09:44.388Z,12.90
2023-09-10T04:10:04.923Z,13.70
2023-09-10T04:10:25.449Z,13.60
2023-09-10T04:10:45.948Z,13.30
2023-09-10T04:11:06.866Z,15.10
2023-09-10T04:11:27.860Z,13.60
2023-09-10T04:11:48.327Z,11.60
2023-09-10T04:12:09.428Z,12.60
2023-09-10T04:12:29.899Z,14.40
2023-09-10T04:12:50.961Z,13.70
2023-09-10T04:13:11.477Z,13.70
2023-09-10T04:13:31.984Z,12.70
2023-09-10T04:13:52.556Z,13.00
2023-09-10T04:14:13.124Z,12.20
2023-09-10T04:14:33.637Z,11.10
2023-09-10T04:14:54.185Z,13.50
2023-09-10T04:15:14.747Z,13.70
2023-09-10T04:15:35.253Z,13.50
2023-09-10T04:15:55.766Z,13.20
2023-09-10T04:16:16.199Z,13.10
2023-09-10T04:16:37.175Z,15.40
2023-09-10T04:16:58.194Z,15.30
2023-09-10T04:17:18.708Z,13.50
2023-09-10T04:17:39.187Z,12.40
2023-09-10T04:18:00.785Z,13.30
2023-09-10T04:18:20.771Z,12.30
2023-09-10T04:18:42.950Z,16.20
2023-09-10T04:19:01.803Z,14.70
2023-09-10T04:19:22.242Z,11.40
2023-09-10T04:19:43.296Z,13.40
2023-09-10T04:20:03.842Z,13.80
2023-09-10T04:20:24.532Z,15.20
2023-09-10T04:20:45.070Z,13.20
2023-09-10T04:21:05.609Z,11.90
2023-09-10T04:21:26.337Z,11.80
2023-09-10T04:21:46.756Z,13.20
2023-09-10T04:22:07.702Z,13.50
2023-09-10T04:22:28.666Z,11.40
2023-09-10T04:22:49.676Z,11.40
2023-09-10T04:23:10.658Z,13.40
2023-09-10T04:23:31.841Z,13.60
2023-09-10T04:23:54.370Z,13.70
2023-09-10T04:24:13.221Z,13.30
2023-09-10T04:24:33.925Z,10.70
2023-09-10T04:24:54.449Z,13.70
2023-09-10T04:25:14.976Z,13.80
2023-09-10T04:25:35.735Z,14.60
2023-09-10T04:25:56.298Z,15.00
2023-09-10T04:26:16.742Z,14.70
2023-09-10T04:26:37.211Z,14.20
2023-09-10T04:26:58.164Z,13.80
2023-09-10T04:27:19.119Z,12.20
2023-09-10T04:27:40.066Z,13.00
2023-09-10T04:28:01.024Z,13.80
2023-09-10T04:28:22.043Z,14.00
2023-09-10T04:28:43.064Z,12.80
2023-09-10T04:29:03.144Z,13.90
2023-09-10T04:29:24.188Z,14.50